Firebaugh, CA (93622)

3:35 PM PDT on August 30, 2014 (GMT -0700)
MAP MENDOTA (P304) CA PSD | Change Station
CLOSE
Current Station
Personal Weather Station
Location: Mendota, CA
Elevation: 164 ft
Nearby Weather Stations

Elev 164 ft 36.74 °N, 120.36 °W | Updated 35 minutes ago

Clear
Clear
97 °F
Feels Like 93 °F
N
3
Wind Variable Wind from North
Gusts 0.0 mph

Today
High -- | Low -- °F
--% Chance of Precip.
Yesterday
High -- | Low -- °F
Precip. -- in
6:31 AM 7:33 PM
Waxing Crescent, 25% visible
Pressure 29.81 in
Visibility 10.0 miles
Clouds Clear
Heat Index 93 °F
Dew Point 41 °F
Humidity 14%
Rainfall -999.00 in
Snow Depth Not available.
UV 8 out of 12
Pollen 9.90 out of 12
Air Quality Not available.
Flu Activity Not available.
METAR KMAE 302153Z AUTO 29009KT 10SM CLR 37/02 A2982 RMK AO2 SLP093 T03720017

More Conditions Fewer Conditions

Pressure 29.81 in
Visibility 10.0 miles
Clouds Clear
Heat Index 93 °F
Dew Point 41 °F
Humidity 14%
Rainfall -999.00 in
Snow Depth Not available.
UV 8 out of 12
Pollen 9.90 out of 12
Air Quality Not available.
Flu Activity Not available.
METAR KMAE 302153Z AUTO 29009KT 10SM CLR 37/02 A2982 RMK AO2 SLP093 T03720017

More Conditions Fewer Conditions

10-Day Weather Forecast

Almanac

Astronomy

Aug. 30, 2014 Rise Set
Actual Time 6:31 AM PDT 7:33 PM PDT
Civil Twilight 6:04 AM PDT 7:59 PM PDT
Nautical Twilight 5:33 AM PDT 8:31 PM PDT
Astronomical Twilight 5:00 AM PDT 9:03 PM PDT
Moon 11:15 AM PDT 10:19 PM PDT
Length of Visible Light 13h 54m
Length of Day
13h 01m
Tomorrow will be 2m 14s shorter.
Waxing Crescent, 25% of the Moon is Illuminated
Today
Waxing Crescent
Sep 2
First Quarter
Sep 8
Full
Sep 15
Last Quarter
Sep 24
New

Today's Extremes

State Highs State Lows

Community

WunderPhotos

Upload Photos

1,748,657 photos uploaded!

WunderBlogs® & News

Nearby

Snow Depth

Station Depth Elevation
Leavitt Meadows 0 in 7200 ft
Summit Meadow 0 in 9122 ft
Hagan's Meadow 0 in 8000 ft
Rubicon #2 0 in 7500 ft
CSS Lab 0 in 6900 ft

Earthquake Activity

City Distance Mag. Time & Date
Ridgemark, California 44 miles 3.4 4:32 PM PDT
2014-08-29
Ridgemark, California 44 miles 3.0 2:44 PM PDT
2014-08-29
Orange Cove, California 72 miles 2.5 7:48 AM PDT
2014-08-29
Minimum magnitude displayed is 2.5.

Coastal Water Temperatures

Place Temperature
No Stations Reporting

Nearby Weather Stations